Time;durP1;ratioP1;P1;durP2;ratioP2;P2;SDS_P1;SDS_P2;PMS_P1;PMS_P2;Temp;Humidity;BMP_temperature;BMP_pressure;BME280_temperature;BME280_humidity;BME280_pressure;Samples;Min_cycle;Max_cycle;Signal;HPM_P1;HPM_P2
2022/04/15 00:01:34;;;;;;;4.00;2.90;;;;;;;12.14;58.93;102058.34;4982505;28;97008;-84
2022/04/15 00:03:59;;;;;;;2.60;2.40;;;;;;;12.10;59.10;102058.50;4977780;28;97910;-85
2022/04/15 00:06:25;;;;;;;3.87;2.40;;;;;;;12.08;59.14;102063.72;4979784;28;99589;-84
2022/04/15 00:08:51;;;;;;;3.50;2.27;;;;;;;12.08;58.88;102060.22;4978405;28;96999;-85
2022/04/15 00:11:16;;;;;;;4.43;2.33;;;;;;;12.06;58.96;102055.16;4994872;28;96458;-87
2022/04/15 00:13:42;;;;;;;3.73;2.10;;;;;;;12.08;59.19;102060.22;4983255;28;98769;-85
2022/04/15 00:16:08;;;;;;;4.10;2.33;;;;;;;12.10;58.98;102052.97;4983516;28;97350;-85
2022/04/15 00:18:34;;;;;;;3.93;2.43;;;;;;;12.10;58.88;102047.47;4980245;28;97345;-85
2022/04/15 00:21:01;;;;;;;2.53;2.33;;;;;;;12.06;58.98;102054.41;4982141;28;97491;-85
2022/04/15 00:23:27;;;;;;;3.03;2.43;;;;;;;12.09;59.08;102050.69;4983090;28;98740;-85
2022/04/15 00:25:54;;;;;;;2.20;2.10;;;;;;;12.07;58.91;102056.69;4982067;28;99719;-85
2022/04/15 00:28:19;;;;;;;2.07;1.90;;;;;;;12.07;58.83;102059.44;4976341;28;96999;-85
2022/04/15 00:30:45;;;;;;;4.70;2.20;;;;;;;12.07;58.61;102058.69;4984862;28;96939;-85
2022/04/15 00:33:11;;;;;;;2.60;2.17;;;;;;;12.10;58.71;102057.75;4979628;28;97568;-85
2022/04/15 00:35:37;;;;;;;2.50;2.40;;;;;;;12.11;58.69;102053.75;4980280;28;98490;-84
2022/04/15 00:38:02;;;;;;;2.60;2.40;;;;;;;12.11;58.76;102049.00;4971731;28;97140;-84
2022/04/15 00:40:28;;;;;;;2.30;2.20;;;;;;;12.15;58.77;102055.09;4983088;28;96963;-85
2022/04/15 00:42:53;;;;;;;3.63;2.30;;;;;;;12.14;58.77;102066.63;4982065;28;98322;-85
2022/04/15 00:45:21;;;;;;;1.93;1.83;;;;;;;12.14;58.64;102053.59;4979936;28;96680;-84
2022/04/15 00:47:57;;;;;;;2.10;2.00;;;;;;;12.14;58.63;102061.88;4982330;28;96589;-85
2022/04/15 00:50:31;;;;;;;2.77;2.47;;;;;;;12.16;58.75;102058.63;4983745;28;97314;-84
2022/04/15 00:52:58;;;;;;;2.43;1.90;;;;;;;12.15;58.53;102059.84;4983322;28;99908;-84
2022/04/15 00:55:25;;;;;;;2.53;2.37;;;;;;;12.13;58.48;102056.78;4983386;28;97013;-84
2022/04/15 00:57:57;;;;;;;2.70;2.33;;;;;;;12.16;58.84;102064.16;4981043;28;97102;-84
2022/04/15 01:00:23;;;;;;;2.47;2.20;;;;;;;12.13;58.69;102056.78;4982660;28;97120;-84
2022/04/15 01:02:50;;;;;;;3.63;2.73;;;;;;;12.13;58.69;102057.56;4982103;28;100511;-84
2022/04/15 01:05:16;;;;;;;2.43;2.20;;;;;;;12.12;58.63;102053.28;4983290;28;100336;-84
2022/04/15 01:07:47;;;;;;;2.33;2.13;;;;;;;12.14;58.56;102052.81;4982445;28;97156;-84
2022/04/15 01:10:14;;;;;;;3.30;2.80;;;;;;;12.12;58.71;102058.81;4977281;28;96922;-84
2022/04/15 01:12:43;;;;;;;3.93;2.30;;;;;;;12.17;58.67;102046.34;4972699;28;98049;-84
2022/04/15 01:15:15;;;;;;;2.67;2.47;;;;;;;12.13;58.49;102057.56;4979770;28;100651;-84
2022/04/15 01:17:41;;;;;;;2.80;2.40;;;;;;;12.13;58.51;102054.81;4980939;28;96806;-84
2022/04/15 01:20:09;;;;;;;3.53;2.30;;;;;;;12.13;58.72;102057.56;4980476;28;97400;-84
2022/04/15 01:22:43;;;;;;;2.83;2.63;;;;;;;12.16;58.97;102056.66;4972742;28;97762;-85
2022/04/15 01:25:14;;;;;;;2.47;2.27;;;;;;;12.16;58.78;102062.16;4979468;28;103197;-84
2022/04/15 01:27:41;;;;;;;3.23;2.93;;;;;;;12.15;58.46;102054.34;4983141;28;97359;-84
2022/04/15 01:30:11;;;;;;;3.17;2.87;;;;;;;12.11;58.42;102060.03;4981338;28;97337;-85
2022/04/15 01:32:36;;;;;;;3.17;2.60;;;;;;;12.11;58.47;102059.25;4981278;28;98688;-86
2022/04/15 01:35:03;;;;;;;3.37;3.10;;;;;;;12.07;58.48;102059.44;4977975;28;97659;-84
2022/04/15 01:37:30;;;;;;;2.73;2.57;;;;;;;12.00;58.50;102055.03;4979911;28;97451;-86
2022/04/15 01:39:56;;;;;;;3.40;3.10;;;;;;;12.01;58.59;102066.84;4982795;28;96944;-85
2022/04/15 01:42:21;;;;;;;2.40;2.30;;;;;;;12.02;58.41;102073.88;4981009;28;98370;-84
2022/04/15 01:44:47;;;;;;;4.50;2.60;;;;;;;12.03;58.46;102072.66;4982591;28;99432;-84
2022/04/15 01:47:12;;;;;;;3.00;2.80;;;;;;;11.97;58.40;102072.50;4983616;28;97041;-84
2022/04/15 01:49:38;;;;;;;2.77;2.37;;;;;;;11.94;58.74;102092.78;4977773;28;96970;-85
2022/04/15 01:52:05;;;;;;;2.13;2.03;;;;;;;11.98;58.65;102081.56;4983479;28;97809;-84
2022/04/15 01:54:31;;;;;;;2.17;2.07;;;;;;;11.99;58.61;102081.09;4980447;28;97642;-84
2022/04/15 01:56:57;;;;;;;2.70;2.03;;;;;;;11.99;58.51;102085.84;4981639;28;97185;-84
2022/04/15 01:59:23;;;;;;;1.90;1.80;;;;;;;11.96;58.50;102082.03;4970665;28;96872;-85
2022/04/15 02:01:49;;;;;;;1.87;1.77;;;;;;;11.97;58.50;102080.78;4986309;28;98444;-84
2022/04/15 02:04:15;;;;;;;2.00;1.87;;;;;;;11.98;58.82;102093.38;4984544;28;97008;-84
2022/04/15 02:06:40;;;;;;;2.43;2.23;;;;;;;12.00;58.70;102095.66;4984868;28;97023;-83
2022/04/15 02:09:06;;;;;;;3.07;1.83;;;;;;;12.01;58.64;102077.88;4970558;28;96870;-84
2022/04/15 02:11:34;;;;;;;2.10;2.00;;;;;;;12.02;58.59;102077.41;4985250;28;97703;-83
2022/04/15 02:13:59;;;;;;;2.10;2.00;;;;;;;11.99;58.79;102072.81;4986845;28;99733;-84
2022/04/15 02:16:25;;;;;;;2.27;2.10;;;;;;;12.03;59.02;102081.66;4985603;28;96793;-85
2022/04/15 02:18:50;;;;;;;2.33;1.93;;;;;;;12.06;58.99;102084.75;4985254;28;97021;-84
2022/04/15 02:21:15;;;;;;;4.63;1.87;;;;;;;12.07;58.95;102089.03;4985250;28;97968;-84
2022/04/15 02:23:41;;;;;;;1.93;1.83;;;;;;;12.05;58.74;102095.03;4982495;28;97687;-82
2022/04/15 02:26:06;;;;;;;3.17;1.83;;;;;;;12.08;58.66;102096.09;4981765;28;96698;-83
2022/04/15 02:28:31;;;;;;;2.40;1.70;;;;;;;12.10;58.73;102129.47;4980720;28;96976;-83
2022/04/15 02:30:57;;;;;;;2.10;1.80;;;;;;;12.09;58.68;102100.34;4981230;28;99547;-84
2022/04/15 02:33:22;;;;;;;2.17;1.97;;;;;;;12.10;58.76;102090.84;4972911;28;100546;-82
2022/04/15 02:35:48;;;;;;;1.90;1.80;;;;;;;12.08;58.75;102090.56;4986748;28;97009;-84
2022/04/15 02:38:13;;;;;;;2.30;2.13;;;;;;;12.06;58.82;102085.50;4985516;28;96640;-82
2022/04/15 02:40:39;;;;;;;2.20;2.10;;;;;;;12.07;58.93;102086.25;4976470;28;100151;-83
2022/04/15 02:43:04;;;;;;;2.47;1.80;;;;;;;12.06;58.88;102095.78;4984855;28;99214;-82
2022/04/15 02:45:30;;;;;;;1.70;1.60;;;;;;;12.01;58.98;102081.38;4983369;28;96936;-84
2022/04/15 02:47:56;;;;;;;4.03;1.90;;;;;;;11.99;58.99;102081.09;4985612;28;98245;-83
2022/04/15 02:50:21;;;;;;;2.03;1.90;;;;;;;12.07;59.06;102086.25;4984580;28;97886;-83
2022/04/15 02:52:47;;;;;;;1.93;1.83;;;;;;;12.07;58.91;102119.38;4983268;28;97580;-83
2022/04/15 02:55:13;;;;;;;2.03;1.93;;;;;;;12.06;58.77;102112.34;4983699;28;96642;-84
2022/04/15 02:57:38;;;;;;;1.70;1.60;;;;;;;12.06;58.91;102104.81;4981016;28;97012;-84
2022/04/15 03:00:04;;;;;;;1.70;1.57;;;;;;;12.03;59.13;102097.47;4979987;28;97994;-83
2022/04/15 03:02:34;;;;;;;2.20;2.10;;;;;;;12.00;59.22;102104.69;4982650;28;98602;-83
2022/04/15 03:05:00;;;;;;;3.00;1.90;;;;;;;12.00;59.13;102115.72;4983776;28;97166;-83
2022/04/15 03:07:25;;;;;;;1.97;1.70;;;;;;;12.02;59.22;102091.19;4976626;28;97258;-83
2022/04/15 03:09:51;;;;;;;1.50;1.50;;;;;;;11.98;59.16;102118.19;4985057;28;97978;-83
2022/04/15 03:12:16;;;;;;;2.00;1.90;;;;;;;12.06;59.01;102102.03;4986649;28;98374;-83
2022/04/15 03:14:42;;;;;;;2.73;1.90;;;;;;;12.07;59.06;102119.38;4985597;28;97303;-83
2022/04/15 03:17:08;;;;;;;2.03;1.93;;;;;;;12.07;59.02;102109.09;4986347;28;96764;-83
2022/04/15 03:19:33;;;;;;;3.00;2.23;;;;;;;12.08;59.10;102118.16;4984314;28;101172;-84
2022/04/15 03:21:59;;;;;;;1.90;1.80;;;;;;;12.07;58.98;102109.09;4977552;28;98604;-84
2022/04/15 03:24:24;;;;;;;2.20;2.10;;;;;;;12.03;59.04;102103.00;4986616;28;96970;-83
2022/04/15 03:26:50;;;;;;;2.27;2.17;;;;;;;12.01;59.12;102111.72;4982791;28;97015;-83
2022/04/15 03:29:15;;;;;;;2.20;2.00;;;;;;;12.02;59.08;102106.97;4974137;28;100102;-83
2022/04/15 03:31:41;;;;;;;2.50;2.30;;;;;;;12.02;59.23;102107.75;4982459;28;96747;-83
2022/04/15 03:34:07;;;;;;;2.20;2.10;;;;;;;12.02;58.96;102115.25;4985833;28;96742;-83
2022/04/15 03:36:32;;;;;;;2.37;2.17;;;;;;;12.02;59.06;102123.53;4975508;28;97315;-83
2022/04/15 03:38:57;;;;;;;4.10;2.20;;;;;;;11.97;59.25;102118.63;4969544;28;98722;-83
2022/04/15 03:41:23;;;;;;;2.10;2.00;;;;;;;11.93;59.16;102110.53;4977288;28;96879;-83
2022/04/15 03:43:50;;;;;;;2.87;2.70;;;;;;;11.84;59.40;102110.56;4976938;28;98087;-84
2022/04/15 03:46:15;;;;;;;2.60;2.40;;;;;;;11.87;59.27;102111.63;4985117;28;96869;-83
2022/04/15 03:48:41;;;;;;;3.80;2.77;;;;;;;11.89;59.40;102120.97;4980055;28;97496;-82
2022/04/15 03:51:08;;;;;;;2.60;2.40;;;;;;;11.89;59.36;102129.25;4982546;28;97489;-82
2022/04/15 03:53:34;;;;;;;3.73;2.43;;;;;;;11.86;59.43;102110.88;4978546;28;97231;-83
2022/04/15 03:56:00;;;;;;;5.17;2.87;;;;;;;11.88;59.52;102108.41;4982375;28;96837;-83
2022/04/15 03:58:25;;;;;;;3.93;2.47;;;;;;;11.92;59.48;102122.03;4982810;28;98739;-83
2022/04/15 04:00:50;;;;;;;2.57;2.37;;;;;;;11.92;59.41;102138.59;4985081;28;98443;-83
2022/04/15 04:03:16;;;;;;;2.90;2.70;;;;;;;11.95;59.66;102123.84;4978709;28;96947;-84
2022/04/15 04:05:41;;;;;;;2.80;2.60;;;;;;;11.98;59.73;102137.50;4984222;28;97279;-84
2022/04/15 04:08:07;;;;;;;2.97;2.53;;;;;;;12.01;59.65;102124.78;4984240;28;98475;-85
2022/04/15 04:10:33;;;;;;;3.53;2.43;;;;;;;11.99;59.51;102125.22;4983156;28;97359;-83
2022/04/15 04:12:59;;;;;;;2.90;2.70;;;;;;;11.91;59.47;102145.31;4983196;28;97099;-83
2022/04/15 04:15:25;;;;;;;3.57;2.80;;;;;;;11.85;59.73;102134.16;4980237;28;97346;-83
2022/04/15 04:17:50;;;;;;;3.60;2.83;;;;;;;11.84;59.88;102148.41;4976366;28;100143;-84
2022/04/15 04:20:17;;;;;;;3.20;3.00;;;;;;;11.83;59.86;102150.41;4982481;28;96984;-83
2022/04/15 04:22:42;;;;;;;2.70;2.60;;;;;;;11.87;59.84;102148.25;4978428;28;97113;-83
2022/04/15 04:25:09;;;;;;;4.70;3.40;;;;;;;11.88;59.76;102158.03;4985671;28;97233;-83
2022/04/15 04:27:38;;;;;;;3.50;3.20;;;;;;;11.88;59.74;102147.00;4982680;28;98481;-83
2022/04/15 04:30:05;;;;;;;3.43;3.13;;;;;;;11.81;59.96;102158.41;4981893;28;99243;-84
2022/04/15 04:32:31;;;;;;;2.90;2.60;;;;;;;11.79;59.94;102155.34;4983191;28;96784;-84
2022/04/15 04:34:56;;;;;;;4.03;3.63;;;;;;;11.76;59.96;102161.00;4978647;28;96946;-84
2022/04/15 04:37:22;;;;;;;3.43;3.20;;;;;;;11.72;60.18;102147.38;4982592;28;100459;-83
2022/04/15 04:39:48;;;;;;;3.30;3.10;;;;;;;11.76;60.15;102161.00;4976481;28;97577;-84
2022/04/15 04:42:14;;;;;;;4.83;3.13;;;;;;;11.70;60.08;102171.13;4975127;28;96920;-84
2022/04/15 04:44:41;;;;;;;4.13;3.40;;;;;;;11.66;60.01;102162.22;4983719;28;96892;-84
2022/04/15 04:47:08;;;;;;;4.53;3.70;;;;;;;11.65;60.22;102164.22;4978077;28;98794;-83
2022/04/15 04:49:33;;;;;;;3.60;3.30;;;;;;;11.64;60.01;102157.16;4986070;28;98233;-84
2022/04/15 04:51:59;;;;;;;3.70;3.40;;;;;;;11.66;60.17;102171.28;4981109;28;97225;-83
2022/04/15 04:54:24;;;;;;;3.50;3.20;;;;;;;11.67;60.20;102194.09;4975642;28;97248;-83
2022/04/15 04:56:50;;;;;;;3.03;2.87;;;;;;;11.68;60.00;102168.84;4980679;28;99459;-84
2022/04/15 04:59:15;;;;;;;7.20;4.07;;;;;;;11.72;59.95;102168.66;4980960;28;100850;-83
2022/04/15 05:01:41;;;;;;;2.83;2.70;;;;;;;11.71;59.91;102184.44;4983071;28;96964;-83
2022/04/15 05:04:06;;;;;;;5.70;3.33;;;;;;;11.74;59.82;102180.78;4983031;28;96971;-83
2022/04/15 05:06:31;;;;;;;4.27;3.57;;;;;;;11.73;59.73;102190.25;4983294;28;97100;-83
2022/04/15 05:08:57;;;;;;;3.37;3.17;;;;;;;11.78;59.95;102202.66;4982692;28;99200;-83
2022/04/15 05:11:22;;;;;;;3.73;3.47;;;;;;;11.81;60.11;102177.69;4977676;28;97428;-83
2022/04/15 05:13:50;;;;;;;5.10;3.73;;;;;;;11.82;59.97;102195.75;4984235;28;96870;-82
2022/04/15 05:16:16;;;;;;;4.13;3.60;;;;;;;11.86;59.83;102190.09;4985611;28;97078;-83
2022/04/15 05:18:41;;;;;;;3.97;3.60;;;;;;;11.81;59.69;102194.25;4975306;28;98242;-83
2022/04/15 05:21:07;;;;;;;5.60;3.80;;;;;;;11.77;59.77;102201.16;4978795;28;96879;-83
2022/04/15 05:23:33;;;;;;;4.13;3.50;;;;;;;11.75;59.81;102201.59;4982445;28;97219;-83
2022/04/15 05:25:58;;;;;;;3.50;3.20;;;;;;;11.79;59.59;102242.81;4984059;28;97950;-82
2022/04/15 05:28:24;;;;;;;3.70;3.17;;;;;;;11.79;59.49;102218.00;4975694;28;100281;-83
2022/04/15 05:30:49;;;;;;;3.93;3.63;;;;;;;11.79;59.65;102209.72;4984548;28;97116;-84
2022/04/15 05:33:14;;;;;;;3.97;3.50;;;;;;;11.80;59.45;102202.97;4982602;28;96914;-83
2022/04/15 05:35:40;;;;;;;5.87;4.27;;;;;;;11.83;59.63;102213.06;4984657;28;97516;-82
2022/04/15 05:38:07;;;;;;;3.50;3.20;;;;;;;11.86;59.56;102198.38;4988060;28;97394;-83
2022/04/15 05:40:32;;;;;;;4.10;3.70;;;;;;;11.92;59.62;102202.03;4987801;28;96872;-83
2022/04/15 05:42:58;;;;;;;4.70;3.70;;;;;;;11.93;59.56;102212.59;4986842;28;97686;-83
2022/04/15 05:45:23;;;;;;;3.60;3.30;;;;;;;11.90;59.47;102210.00;4987658;28;96870;-83
2022/04/15 05:47:48;;;;;;;9.93;3.70;;;;;;;11.94;59.70;102216.13;4985377;28;96796;-83
2022/04/15 05:50:14;;;;;;;3.80;2.87;;;;;;;11.96;59.45;102225.47;4984851;28;97011;-83
2022/04/15 05:52:39;;;;;;;3.20;3.00;;;;;;;11.98;59.42;102225.75;4983253;28;97259;-83
2022/04/15 05:55:05;;;;;;;3.97;3.70;;;;;;;11.94;59.39;102233.44;4986352;28;99539;-82
2022/04/15 05:57:31;;;;;;;4.10;3.80;;;;;;;11.93;59.47;102222.84;4986482;28;96722;-83
2022/04/15 05:59:57;;;;;;;5.93;4.00;;;;;;;11.91;59.40;102237.09;4987124;28;96834;-84
2022/04/15 06:02:24;;;;;;;3.70;3.37;;;;;;;11.92;59.40;102237.88;4994216;27;96652;-84
2022/04/15 06:04:49;;;;;;;3.77;3.47;;;;;;;11.96;59.38;102239.25;4982765;28;100037;-84
2022/04/15 06:07:15;;;;;;;3.77;3.47;;;;;;;11.98;59.46;102242.31;4982035;28;97556;-83
2022/04/15 06:09:40;;;;;;;3.57;3.20;;;;;;;12.05;59.30;102238.47;4986453;28;97073;-83
2022/04/15 06:12:07;;;;;;;7.90;3.30;;;;;;;12.07;59.34;102235.22;4985636;28;96984;-83
2022/04/15 06:14:35;;;;;;;4.33;3.00;;;;;;;12.06;59.42;102228.19;4985773;28;98607;-84
2022/04/15 06:17:01;;;;;;;4.60;3.93;;;;;;;12.11;59.13;102263.41;4982395;28;97059;-83
2022/04/15 06:19:27;;;;;;;4.30;3.57;;;;;;;12.16;59.42;102241.50;4987071;28;97147;-82
2022/04/15 06:21:52;;;;;;;4.17;2.73;;;;;;;12.22;59.21;102239.63;4985407;28;96714;-82
2022/04/15 06:24:18;;;;;;;4.20;3.70;;;;;;;12.18;59.04;102244.56;4980703;28;98555;-85
2022/04/15 06:26:43;;;;;;;3.47;3.20;;;;;;;12.15;59.20;102245.47;4985020;28;98652;-84
2022/04/15 06:29:08;;;;;;;3.03;2.83;;;;;;;12.20;59.31;102264.19;4985770;28;97259;-84
2022/04/15 06:31:34;;;;;;;3.20;2.90;;;;;;;12.25;59.05;102262.78;4985743;28;97644;-83
2022/04/15 06:33:59;;;;;;;4.20;3.83;;;;;;;12.26;59.19;102256.78;4982627;28;98020;-83
2022/04/15 06:36:25;;;;;;;3.63;2.97;;;;;;;12.29;59.16;102258.63;4971956;28;97120;-84
2022/04/15 06:38:51;;;;;;;7.33;3.40;;;;;;;12.31;59.17;102271.97;4977620;28;96750;-83
2022/04/15 06:41:16;;;;;;;3.60;3.30;;;;;;;12.29;59.00;102274.41;4981206;28;97258;-83
2022/04/15 06:43:41;;;;;;;5.13;3.77;;;;;;;12.25;59.04;102274.59;4982524;28;97937;-83
2022/04/15 06:46:07;;;;;;;3.90;3.60;;;;;;;12.24;59.26;102280.56;4985224;28;99655;-83
2022/04/15 06:48:32;;;;;;;4.57;3.47;;;;;;;12.31;58.98;102286.53;4984462;28;97054;-83
2022/04/15 06:50:58;;;;;;;7.83;4.07;;;;;;;12.28;59.17;102275.63;4983307;28;96938;-83
2022/04/15 06:53:23;;;;;;;6.30;3.90;;;;;;;12.32;59.33;102277.00;4985687;28;98658;-83
2022/04/15 06:55:52;;;;;;;3.97;3.67;;;;;;;12.41;59.13;102268.69;4983497;28;97618;-83
2022/04/15 06:58:18;;;;;;;5.13;3.67;;;;;;;12.49;59.16;102272.66;4983106;28;97133;-83
2022/04/15 07:00:44;;;;;;;4.13;3.70;;;;;;;12.59;59.20;102265.88;4984827;28;97044;-84
2022/04/15 07:03:10;;;;;;;4.30;3.90;;;;;;;12.75;59.25;102268.22;4982214;28;97852;-84
2022/04/15 07:05:36;;;;;;;3.87;3.57;;;;;;;12.85;59.08;102287.53;4981837;28;96818;-83
2022/04/15 07:08:01;;;;;;;3.80;3.33;;;;;;;12.89;58.76;102291.66;4985973;28;96996;-83
2022/04/15 07:10:27;;;;;;;4.23;3.83;;;;;;;12.96;58.66;102290.53;4984897;28;97128;-83
2022/04/15 07:12:52;;;;;;;4.27;3.87;;;;;;;12.97;58.65;102283.78;4978115;28;99109;-83
2022/04/15 07:15:20;;;;;;;3.40;3.10;;;;;;;12.92;58.78;102281.66;4981310;28;96744;-83
2022/04/15 07:17:45;;;;;;;4.17;3.53;;;;;;;12.92;58.64;102293.50;4985714;28;97429;-82
2022/04/15 07:20:11;;;;;;;5.07;3.87;;;;;;;12.97;58.67;102319.72;4983874;28;96743;-84
2022/04/15 07:22:36;;;;;;;5.73;4.10;;;;;;;13.00;58.67;102302.19;4982435;28;100098;-84
2022/04/15 07:25:02;;;;;;;3.70;3.40;;;;;;;12.97;58.77;102301.16;4986761;28;97155;-83
2022/04/15 07:27:28;;;;;;;4.80;3.73;;;;;;;12.87;58.40;102301.63;4978295;28;96881;-84
2022/04/15 07:29:53;;;;;;;4.87;4.40;;;;;;;12.70;58.97;102301.25;4986655;28;97326;-84
2022/04/15 07:32:23;;;;;;;5.87;4.23;;;;;;;12.76;59.02;102305.69;4986001;28;96950;-83
2022/04/15 07:34:49;;;;;;;5.97;4.60;;;;;;;12.79;59.02;102304.75;4977016;28;97936;-83
2022/04/15 07:37:15;;;;;;;7.67;4.17;;;;;;;12.84;59.04;102310.88;4984713;28;96921;-84
2022/04/15 07:39:41;;;;;;;5.17;4.27;;;;;;;12.91;59.08;102314.03;4985324;28;96762;-83
2022/04/15 07:42:06;;;;;;;4.33;4.00;;;;;;;12.94;58.83;102321.41;4982411;28;103500;-84
2022/04/15 07:44:32;;;;;;;4.27;3.87;;;;;;;12.80;58.57;102319.31;4992620;28;97241;-85
2022/04/15 07:46:57;;;;;;;8.13;4.43;;;;;;;12.68;59.13;102314.78;4984389;28;96963;-83
2022/04/15 07:49:23;;;;;;;7.60;4.83;;;;;;;12.71;59.08;102324.91;4984533;28;96444;-83
2022/04/15 07:51:48;;;;;;;6.70;5.53;;;;;;;12.62;58.96;102347.75;4984100;28;98060;-84
2022/04/15 07:54:14;;;;;;;5.33;4.83;;;;;;;12.64;59.28;102317.72;4972554;28;98232;-83
2022/04/15 07:56:40;;;;;;;5.67;4.80;;;;;;;12.77;59.14;102340.38;4984322;28;97058;-82
2022/04/15 07:59:06;;;;;;;7.37;5.20;;;;;;;12.86;59.24;102325.75;4983998;28;97221;-83
2022/04/15 08:01:33;;;;;;;8.23;5.10;;;;;;;12.95;59.15;102333.22;4983900;28;99828;-84
2022/04/15 08:03:59;;;;;;;6.93;5.13;;;;;;;12.93;59.13;102322.63;4983369;28;99569;-83
2022/04/15 08:06:26;;;;;;;7.77;6.17;;;;;;;12.95;59.03;102327.72;4983521;28;97047;-82
2022/04/15 08:08:55;;;;;;;6.40;5.00;;;;;;;13.05;59.08;102346.56;4983284;28;96797;-83
2022/04/15 08:11:25;;;;;;;7.10;4.63;;;;;;;13.24;58.94;102328.63;4979222;28;99339;-84
2022/04/15 08:13:51;;;;;;;7.63;5.10;;;;;;;13.33;58.74;102334.13;4980605;28;96513;-83
2022/04/15 08:16:17;;;;;;;7.37;5.27;;;;;;;13.50;58.89;102342.75;4984477;28;96664;-82
2022/04/15 08:18:43;;;;;;;7.43;4.93;;;;;;;13.53;58.53;102342.59;4975961;28;97904;-84
2022/04/15 08:21:10;;;;;;;5.90;4.53;;;;;;;13.59;58.73;102350.22;4980236;28;99460;-85
2022/04/15 08:23:35;;;;;;;5.73;4.70;;;;;;;13.70;58.37;102350.44;4973586;28;97803;-84
2022/04/15 08:26:01;;;;;;;7.30;4.97;;;;;;;13.71;58.23;102363.81;4983340;28;96894;-83
2022/04/15 08:28:26;;;;;;;5.83;4.20;;;;;;;13.79;58.41;102355.91;4981981;28;97347;-83
2022/04/15 08:30:51;;;;;;;9.87;4.60;;;;;;;13.85;57.90;102365.06;4983209;28;97972;-84
2022/04/15 08:33:17;;;;;;;7.20;5.33;;;;;;;13.84;58.04;102363.56;4973610;28;96835;-82
2022/04/15 08:35:42;;;;;;;6.40;5.17;;;;;;;13.85;58.39;102367.84;4974962;28;96964;-83
2022/04/15 08:38:08;;;;;;;7.63;4.93;;;;;;;13.96;58.03;102373.59;4981559;28;96855;-83
2022/04/15 08:40:35;;;;;;;7.37;5.60;;;;;;;14.02;58.19;102372.47;4980943;28;97604;-84
2022/04/15 08:43:03;;;;;;;11.73;6.00;;;;;;;14.02;57.64;102371.72;4977736;28;104112;-83
2022/04/15 08:45:30;;;;;;;10.27;5.17;;;;;;;14.02;57.75;102377.25;4982705;28;97109;-83
2022/04/15 08:48:00;;;;;;;7.80;4.80;;;;;;;13.97;57.89;102383.44;4982544;28;96971;-82
2022/04/15 08:50:30;;;;;;;6.90;4.80;;;;;;;14.03;57.70;102367.69;4977373;28;98061;-82
2022/04/15 08:52:57;;;;;;;4.73;3.97;;;;;;;14.16;57.95;102387.56;4981767;28;97729;-82
2022/04/15 08:55:24;;;;;;;4.57;3.60;;;;;;;14.27;57.72;102368.41;4983303;28;97092;-83
2022/04/15 08:57:51;;;;;;;6.90;4.00;;;;;;;14.33;57.60;102380.38;4982709;28;97180;-83
2022/04/15 09:00:19;;;;;;;6.67;4.50;;;;;;;14.34;57.40;102397.75;4982020;28;96870;-83
2022/04/15 09:02:44;;;;;;;6.73;4.40;;;;;;;14.30;57.30;102381.34;4981576;28;100028;-82
2022/04/15 09:05:11;;;;;;;8.63;4.60;;;;;;;14.37;57.42;102397.59;4981766;28;97531;-82
2022/04/15 09:07:37;;;;;;;8.30;5.10;;;;;;;14.44;57.39;102399.22;4985885;28;96967;-83
2022/04/15 09:10:08;;;;;;;5.83;4.60;;;;;;;14.52;57.12;102397.59;4987297;28;98057;-83
2022/04/15 09:12:37;;;;;;;7.03;5.10;;;;;;;14.52;56.92;102409.44;4985490;28;97821;-84
2022/04/15 09:15:06;;;;;;;6.20;5.00;;;;;;;14.36;57.09;102406.34;4986886;28;97174;-82
2022/04/15 09:17:32;;;;;;;6.00;4.73;;;;;;;14.32;57.20;102398.25;4982861;28;96865;-83
2022/04/15 09:19:58;;;;;;;8.90;4.80;;;;;;;14.18;57.30;102404.47;4984539;28;99330;-82
2022/04/15 09:22:24;;;;;;;5.97;4.27;;;;;;;14.18;57.27;102421.84;4983407;28;99254;-84
2022/04/15 09:24:51;;;;;;;8.30;4.60;;;;;;;14.24;57.26;102416.44;4984885;28;97316;-82
2022/04/15 09:27:17;;;;;;;10.53;4.43;;;;;;;14.31;57.31;102413.31;4987143;28;97226;-83
2022/04/15 09:29:42;;;;;;;4.67;4.13;;;;;;;14.29;57.30;102424.09;4985796;28;99035;-82
2022/04/15 09:32:18;;;;;;;9.27;5.17;;;;;;;14.34;57.13;102415.13;4985655;28;97418;-83
2022/04/15 09:34:56;;;;;;;5.70;4.27;;;;;;;14.37;57.32;102419.75;4977996;28;96921;-82
2022/04/15 09:37:24;;;;;;;6.90;4.70;;;;;;;14.40;57.52;102429.84;4986569;28;96986;-84
2022/04/15 09:40:05;;;;;;;7.00;5.10;;;;;;;14.27;56.63;102430.09;4979138;28;100712;-83
2022/04/15 09:42:34;;;;;;;6.07;4.90;;;;;;;14.08;57.29;102433.47;4978350;28;101780;-84
2022/04/15 09:45:14;;;;;;;14.17;5.47;;;;;;;13.92;57.04;102442.97;4986679;28;96773;-83
2022/04/15 09:47:40;;;;;;;6.57;4.90;;;;;;;13.81;57.28;102445.50;4984746;28;97067;-82
2022/04/15 09:50:07;;;;;;;5.77;5.07;;;;;;;13.83;57.46;102448.56;4982780;28;99561;-84
2022/04/15 09:52:33;;;;;;;5.10;4.53;;;;;;;13.81;57.44;102441.97;4984856;28;97181;-82
2022/04/15 09:55:01;;;;;;;6.57;4.77;;;;;;;13.85;57.59;102456.38;4987797;28;96827;-82
2022/04/15 09:57:33;;;;;;;8.50;4.60;;;;;;;13.87;57.40;102454.69;4984536;28;96955;-82
2022/04/15 10:00:03;;;;;;;6.43;4.63;;;;;;;13.90;57.28;102470.34;4976675;28;99543;-82
2022/04/15 10:02:35;;;;;;;6.10;4.80;;;;;;;13.95;57.19;102453.09;4987520;28;98469;-82
2022/04/15 10:05:03;;;;;;;7.80;4.50;;;;;;;13.99;57.29;102464.00;4985257;28;96972;-83
2022/04/15 10:07:30;;;;;;;5.73;4.80;;;;;;;14.08;57.27;102448.09;4971242;28;96955;-83
2022/04/15 10:09:57;;;;;;;7.87;4.87;;;;;;;14.16;57.27;102454.00;4984525;28;98480;-83
2022/04/15 10:12:23;;;;;;;5.17;4.67;;;;;;;14.30;57.07;102439.50;4980712;28;97906;-83
2022/04/15 10:14:51;;;;;;;5.70;5.10;;;;;;;14.49;57.18;102460.22;4976350;28;100368;-82
2022/04/15 10:17:20;;;;;;;8.93;5.53;;;;;;;14.55;56.93;102461.09;4983735;28;97021;-83
2022/04/15 10:19:46;;;;;;;6.17;5.57;;;;;;;14.53;56.55;102477.44;4986064;28;98400;-82
2022/04/15 10:22:12;;;;;;;8.30;5.10;;;;;;;14.49;56.67;102479.63;4981278;28;97794;-83
2022/04/15 10:24:38;;;;;;;7.40;5.90;;;;;;;14.37;56.73;102494.50;4985112;28;97018;-82
2022/04/15 10:27:04;;;;;;;10.73;6.40;;;;;;;14.36;56.91;102472.81;4986728;28;96716;-81
2022/04/15 10:29:30;;;;;;;8.17;6.73;;;;;;;14.26;56.69;102491.47;4981952;28;98302;-82
2022/04/15 10:31:56;;;;;;;10.47;7.47;;;;;;;14.20;56.74;102476.75;4981716;28;98813;-82
2022/04/15 10:34:22;;;;;;;12.50;8.13;;;;;;;14.07;56.39;102473.44;4984736;28;97371;-83
2022/04/15 10:36:53;;;;;;;10.90;8.40;;;;;;;13.73;56.85;102485.84;4976691;28;97268;-83
2022/04/15 10:39:24;;;;;;;21.67;11.53;;;;;;;13.45;57.43;102496.25;4982708;28;97963;-84
2022/04/15 10:42:01;;;;;;;26.00;9.77;;;;;;;13.50;57.89;102486.53;4971584;28;99864;-84
2022/04/15 10:44:31;;;;;;;10.70;9.00;;;;;;;13.59;57.67;102492.03;4975918;28;96823;-83
2022/04/15 10:47:12;;;;;;;10.50;7.90;;;;;;;13.62;57.69;102499.41;4981675;28;97403;-82
2022/04/15 10:49:53;;;;;;;10.60;7.10;;;;;;;13.67;57.53;102500.78;4984470;28;98001;-82
2022/04/15 10:52:24;;;;;;;12.73;7.73;;;;;;;13.75;57.47;102486.13;4979774;28;97186;-83
2022/04/15 10:54:56;;;;;;;10.20;8.40;;;;;;;13.81;57.39;102505.59;4983878;28;98339;-82
2022/04/15 10:57:22;;;;;;;12.43;8.17;;;;;;;13.85;57.29;102486.81;4985119;28;97028;-82
2022/04/15 11:02:49;;;;;;;8.40;7.10;;;;;;;14.02;57.38;102482.44;4981439;28;99972;-83
2022/04/15 11:05:35;;;;;;;9.33;7.27;;;;;;;14.08;57.26;102483.31;4980372;28;96974;-82
2022/04/15 11:08:10;;;;;;;8.33;6.97;;;;;;;14.14;56.80;102498.78;4984513;28;96962;-83
2022/04/15 11:11:03;;;;;;;9.23;6.53;;;;;;;14.18;56.84;102493.84;4983268;28;99212;-83
2022/04/15 11:13:28;;;;;;;9.10;6.70;;;;;;;14.21;56.93;102492.91;4981212;28;102683;-83
2022/04/15 11:15:57;;;;;;;10.90;6.90;;;;;;;14.34;56.87;102500.22;4984783;28;97027;-85
2022/04/15 11:18:23;;;;;;;6.63;5.93;;;;;;;14.43;56.81;102500.91;4975892;28;97041;-82
2022/04/15 11:20:49;;;;;;;11.70;6.93;;;;;;;14.61;56.90;102511.06;4984147;28;98962;-82
2022/04/15 11:23:15;;;;;;;8.37;6.40;;;;;;;14.74;56.65;102504.00;4978740;28;97005;-83
2022/04/15 11:25:44;;;;;;;8.37;6.63;;;;;;;14.78;56.01;102496.28;4982916;28;97032;-82